createdAt,value
2019-01-20T00:00:50.416Z,50.31
2019-01-20T00:03:18.552Z,50.37
2019-01-20T00:05:46.707Z,50.46
2019-01-20T00:08:15.000Z,50.34
2019-01-20T00:10:43.254Z,50.26
2019-01-20T00:13:11.408Z,50.25
2019-01-20T00:15:39.832Z,50.23
2019-01-20T00:18:07.993Z,50.47
2019-01-20T00:20:36.203Z,50.46
2019-01-20T00:23:04.409Z,50.43
2019-01-20T00:25:32.585Z,50.32
2019-01-20T00:28:00.752Z,50.54
2019-01-20T00:30:28.963Z,50.79
2019-01-20T00:32:57.116Z,50.99
2019-01-20T00:35:25.482Z,50.90
2019-01-20T00:37:53.682Z,51.02
2019-01-20T00:40:21.856Z,51.08
2019-01-20T00:42:50.036Z,50.99
2019-01-20T00:45:18.223Z,51.00
2019-01-20T00:47:46.384Z,50.98
2019-01-20T00:50:14.941Z,50.85
2019-01-20T00:52:43.113Z,50.92
2019-01-20T00:55:12.359Z,50.86
2019-01-20T00:57:40.930Z,50.89
2019-01-20T01:00:17.783Z,50.93
2019-01-20T01:02:46.092Z,50.80
2019-01-20T01:05:14.399Z,50.79
2019-01-20T01:07:42.645Z,50.75
2019-01-20T01:10:10.869Z,50.60
2019-01-20T01:12:39.534Z,50.87
2019-01-20T01:15:08.252Z,50.92
2019-01-20T01:17:36.442Z,50.76
2019-01-20T01:20:05.348Z,50.74
2019-01-20T01:22:33.587Z,50.49
2019-01-20T01:25:01.862Z,50.62
2019-01-20T01:27:30.033Z,50.57
2019-01-20T01:29:58.204Z,50.51
2019-01-20T01:32:26.384Z,50.46
2019-01-20T01:34:54.616Z,50.60
2019-01-20T01:37:22.828Z,50.33
2019-01-20T01:39:51.053Z,50.49
2019-01-20T01:42:19.175Z,50.42
2019-01-20T01:44:47.338Z,50.51
2019-01-20T01:47:15.577Z,50.46
2019-01-20T01:49:43.772Z,50.46
2019-01-20T01:52:12.011Z,50.47
2019-01-20T01:54:40.213Z,50.42
2019-01-20T01:57:08.382Z,50.49
2019-01-20T01:59:36.664Z,50.51
2019-01-20T02:02:04.860Z,50.45
2019-01-20T02:04:33.055Z,50.67
2019-01-20T02:07:01.281Z,50.48
2019-01-20T02:09:29.447Z,50.40
2019-01-20T02:11:57.634Z,50.52
2019-01-20T02:14:25.782Z,50.51
2019-01-20T02:16:53.954Z,50.57
2019-01-20T02:19:22.133Z,50.61
2019-01-20T02:21:50.348Z,50.56
2019-01-20T02:24:18.574Z,50.61
2019-01-20T02:26:46.785Z,50.56
2019-01-20T02:29:14.983Z,50.36
2019-01-20T02:31:43.136Z,50.51
2019-01-20T02:34:11.395Z,50.39
2019-01-20T02:36:39.578Z,50.45
2019-01-20T02:39:07.795Z,50.50
2019-01-20T02:41:35.960Z,50.37
2019-01-20T02:44:04.143Z,50.30
2019-01-20T02:46:32.340Z,50.29
2019-01-20T02:49:00.526Z,50.44
2019-01-20T02:51:28.725Z,50.46
2019-01-20T02:53:56.947Z,50.27
2019-01-20T02:56:26.202Z,50.33
2019-01-20T02:58:54.426Z,50.19
2019-01-20T03:01:22.632Z,50.19
2019-01-20T03:03:50.820Z,50.30
2019-01-20T03:06:19.017Z,50.28
2019-01-20T03:08:47.144Z,50.32
2019-01-20T03:11:15.326Z,50.35
2019-01-20T03:13:43.538Z,50.43
2019-01-20T03:16:11.687Z,50.35
2019-01-20T03:18:40.041Z,50.37
2019-01-20T03:21:08.220Z,50.51
2019-01-20T03:23:36.403Z,50.34
2019-01-20T03:26:04.662Z,50.20
2019-01-20T03:28:32.832Z,50.25
2019-01-20T03:31:01.005Z,50.34
2019-01-20T03:33:29.206Z,50.32
2019-01-20T03:35:57.453Z,50.39
2019-01-20T03:38:25.635Z,50.42
2019-01-20T03:40:53.801Z,50.33
2019-01-20T03:43:21.947Z,50.27
2019-01-20T03:45:50.129Z,50.28
2019-01-20T03:48:18.306Z,50.23
2019-01-20T03:50:46.478Z,50.28
2019-01-20T03:53:14.631Z,50.37
2019-01-20T03:55:42.795Z,50.50
2019-01-20T03:58:11.080Z,50.28
2019-01-20T04:00:39.269Z,50.37
2019-01-20T04:03:07.898Z,50.31
2019-01-20T04:05:36.077Z,50.43
2019-01-20T04:08:04.274Z,50.33
2019-01-20T04:10:32.475Z,50.29
2019-01-20T04:13:00.682Z,50.32
2019-01-20T04:15:28.986Z,50.37
2019-01-20T04:17:57.222Z,50.31
2019-01-20T04:20:25.400Z,50.38
2019-01-20T04:22:53.594Z,50.40
2019-01-20T04:25:21.867Z,50.40
2019-01-20T04:27:50.074Z,50.43
2019-01-20T04:30:18.971Z,50.27
2019-01-20T04:32:47.235Z,50.35
2019-01-20T04:35:15.482Z,50.51
2019-01-20T04:37:43.775Z,50.49
2019-01-20T04:40:13.330Z,50.39
2019-01-20T04:42:41.585Z,50.40
2019-01-20T04:45:10.479Z,50.41
2019-01-20T04:47:38.715Z,50.32
2019-01-20T04:50:08.310Z,50.49
2019-01-20T04:52:36.534Z,50.51
2019-01-20T04:55:05.158Z,50.43
2019-01-20T05:00:10.775Z,50.48
2019-01-20T05:02:38.930Z,50.42
2019-01-20T05:05:07.169Z,50.41
2019-01-20T05:07:35.347Z,50.41
2019-01-20T05:10:03.605Z,50.50
2019-01-20T05:12:37.569Z,50.43
2019-01-20T05:15:01.822Z,50.35
2019-01-20T05:17:30.028Z,50.42
2019-01-20T05:19:58.183Z,50.42
2019-01-20T05:22:26.528Z,50.35
2019-01-20T05:24:54.729Z,50.38
2019-01-20T05:27:22.963Z,50.38
2019-01-20T05:29:51.199Z,50.41
2019-01-20T05:32:19.529Z,50.40
2019-01-20T05:34:47.785Z,50.43
2019-01-20T05:37:16.073Z,50.35
2019-01-20T05:39:44.356Z,50.50
2019-01-20T05:42:12.543Z,50.60
2019-01-20T05:44:40.859Z,50.53
2019-01-20T05:47:28.267Z,50.57
2019-01-20T05:49:56.467Z,50.44
2019-01-20T05:52:24.691Z,50.46
2019-01-20T05:54:52.939Z,50.38
2019-01-20T05:57:21.183Z,50.30
2019-01-20T05:59:49.357Z,50.24
2019-01-20T06:02:36.538Z,50.71
2019-01-20T06:07:39.049Z,50.54
2019-01-20T06:10:07.921Z,50.66
2019-01-20T06:12:55.205Z,50.55
2019-01-20T06:15:23.791Z,50.42
2019-01-20T06:17:51.977Z,50.52
2019-01-20T06:20:20.139Z,50.42
2019-01-20T06:22:48.361Z,50.74
2019-01-20T06:25:16.577Z,50.77
2019-01-20T06:27:44.800Z,50.69
2019-01-20T06:30:32.084Z,50.64
2019-01-20T06:33:00.340Z,50.69
2019-01-20T06:35:28.547Z,50.66
2019-01-20T06:37:56.780Z,50.70
2019-01-20T06:40:25.000Z,50.64
2019-01-20T06:42:53.285Z,50.64
2019-01-20T06:45:21.536Z,50.57
2019-01-20T06:47:49.752Z,50.62
2019-01-20T06:50:17.974Z,50.78
2019-01-20T06:52:46.225Z,50.66
2019-01-20T06:55:14.441Z,50.74
2019-01-20T06:57:42.616Z,50.66
2019-01-20T07:00:12.318Z,50.71
2019-01-20T07:02:40.509Z,50.63
2019-01-20T07:05:08.798Z,50.80
2019-01-20T07:07:36.993Z,50.90
2019-01-20T07:10:05.582Z,50.97
2019-01-20T07:15:21.991Z,51.04
2019-01-20T07:17:50.226Z,51.04
2019-01-20T07:20:18.399Z,51.04
2019-01-20T07:25:20.103Z,51.03
2019-01-20T07:27:48.389Z,51.16
2019-01-20T07:30:35.697Z,50.91
2019-01-20T07:35:39.342Z,51.04
2019-01-20T07:38:07.640Z,51.32
2019-01-20T07:40:35.796Z,51.45
2019-01-20T07:43:03.940Z,51.42
2019-01-20T07:45:51.186Z,51.33
2019-01-20T07:48:38.243Z,51.70
2019-01-20T07:51:06.412Z,51.91
2019-01-20T07:53:34.560Z,51.94
2019-01-20T07:56:21.805Z,51.52
2019-01-20T07:58:50.022Z,51.01
2019-01-20T08:01:18.175Z,51.35
2019-01-20T08:03:46.318Z,51.32
2019-01-20T08:06:14.468Z,51.12
2019-01-20T08:08:42.617Z,50.83
2019-01-20T08:11:29.857Z,50.80
2019-01-20T08:13:58.013Z,50.65
2019-01-20T08:16:26.148Z,50.45
2019-01-20T08:18:54.294Z,50.32
2019-01-20T08:21:22.432Z,50.19
2019-01-20T08:23:50.600Z,50.03
2019-01-20T08:26:18.737Z,49.89
2019-01-20T08:28:46.866Z,49.91
2019-01-20T08:31:15.058Z,49.69
2019-01-20T08:33:43.194Z,49.78
2019-01-20T08:36:30.425Z,49.74
2019-01-20T08:38:58.576Z,49.70
2019-01-20T08:41:26.733Z,49.51
2019-01-20T08:43:54.860Z,49.58
2019-01-20T08:46:25.226Z,49.50
2019-01-20T08:48:53.355Z,49.56
2019-01-20T08:54:08.811Z,49.66
2019-01-20T08:56:55.957Z,49.62
2019-01-20T09:01:57.410Z,49.88
2019-01-20T09:04:44.473Z,49.80
2019-01-20T09:07:12.607Z,49.94
2019-01-20T09:09:40.749Z,49.93
2019-01-20T09:12:08.884Z,50.06
2019-01-20T09:14:37.029Z,50.02
2019-01-20T09:17:05.204Z,50.18
2019-01-20T09:19:33.344Z,50.25
2019-01-20T09:22:02.451Z,50.17
2019-01-20T09:24:30.641Z,50.29
2019-01-20T09:26:58.783Z,50.21
2019-01-20T09:29:26.940Z,50.16
2019-01-20T09:31:55.075Z,50.19
2019-01-20T09:34:42.307Z,50.11
2019-01-20T09:39:57.591Z,50.20
2019-01-20T09:42:25.746Z,50.21
2019-01-20T09:44:53.873Z,50.09
2019-01-20T09:47:22.017Z,50.20
2019-01-20T09:49:50.177Z,50.27
2019-01-20T09:52:37.222Z,50.17
2019-01-20T09:55:05.676Z,50.12
2019-01-20T09:57:33.811Z,50.06
2019-01-20T10:00:01.942Z,50.02
2019-01-20T10:02:30.233Z,49.97
2019-01-20T10:07:45.514Z,49.89
2019-01-20T10:10:14.231Z,49.84
2019-01-20T10:12:42.389Z,49.94
2019-01-20T10:15:10.979Z,49.82
2019-01-20T10:17:39.114Z,49.72
2019-01-20T10:20:09.917Z,49.81
2019-01-20T10:25:25.215Z,49.82
2019-01-20T10:27:53.367Z,49.64
2019-01-20T10:30:22.877Z,49.67
2019-01-20T10:32:51.027Z,49.64
2019-01-20T10:38:09.101Z,49.62
2019-01-20T10:40:37.262Z,49.56
2019-01-20T10:43:05.431Z,49.65
2019-01-20T10:45:33.607Z,49.59
2019-01-20T10:48:20.709Z,49.51
2019-01-20T10:50:48.876Z,49.49
2019-01-20T10:53:17.150Z,49.43
2019-01-20T10:55:45.312Z,49.46
2019-01-20T10:58:13.494Z,49.44
2019-01-20T11:00:41.915Z,49.43
2019-01-20T11:03:10.070Z,49.34
2019-01-20T11:05:38.243Z,49.35
2019-01-20T11:08:06.494Z,49.30
2019-01-20T11:10:34.641Z,49.36
2019-01-20T11:13:02.777Z,49.16
2019-01-20T11:15:30.911Z,49.26
2019-01-20T11:17:59.089Z,49.42
2019-01-20T11:20:27.240Z,49.05
2019-01-20T11:23:14.310Z,49.20
2019-01-20T11:26:01.529Z,49.16
2019-01-20T11:28:48.757Z,49.00
2019-01-20T11:31:16.920Z,49.05
2019-01-20T11:33:45.053Z,49.03
2019-01-20T11:36:13.230Z,48.92
2019-01-20T11:38:41.413Z,48.81
2019-01-20T11:41:28.529Z,48.78
2019-01-20T11:43:56.625Z,48.88
2019-01-20T11:46:24.807Z,48.68
2019-01-20T11:49:12.017Z,48.75
2019-01-20T11:51:40.216Z,48.72
2019-01-20T11:54:27.428Z,48.61
2019-01-20T11:56:55.617Z,48.58
2019-01-20T11:59:23.764Z,48.38
2019-01-20T12:01:51.918Z,48.20
2019-01-20T12:04:20.090Z,48.09
2019-01-20T12:06:48.391Z,48.22
2019-01-20T12:09:16.565Z,48.28
2019-01-20T12:14:23.954Z,48.01
2019-01-20T12:16:48.209Z,47.89
2019-01-20T12:19:16.493Z,47.33
2019-01-20T12:22:03.572Z,47.21
2019-01-20T12:24:31.745Z,47.35
2019-01-20T12:26:59.875Z,47.77
2019-01-20T12:29:28.027Z,47.57
2019-01-20T12:31:56.174Z,47.24
2019-01-20T12:34:43.244Z,47.23
2019-01-20T12:37:11.410Z,47.26
2019-01-20T12:39:39.586Z,47.24
2019-01-20T12:42:07.797Z,47.04
2019-01-20T12:44:36.068Z,47.16
2019-01-20T12:47:23.325Z,47.28
2019-01-20T12:49:51.492Z,46.88
2019-01-20T12:52:19.684Z,46.90
2019-01-20T12:54:47.944Z,47.13
2019-01-20T12:57:16.117Z,47.08
2019-01-20T12:59:44.259Z,47.00
2019-01-20T13:02:12.457Z,47.03
2019-01-20T13:04:40.643Z,46.72
2019-01-20T13:07:08.806Z,46.66
2019-01-20T13:09:36.944Z,46.64
2019-01-20T13:12:05.118Z,46.39
2019-01-20T13:14:38.981Z,46.42
2019-01-20T13:17:03.155Z,46.84
2019-01-20T13:19:31.281Z,46.45
2019-01-20T13:21:59.487Z,46.23
2019-01-20T13:27:01.213Z,46.70
2019-01-20T13:29:29.363Z,46.24
2019-01-20T13:31:57.541Z,46.23
2019-01-20T13:34:25.689Z,46.44
2019-01-20T13:36:53.875Z,46.45
2019-01-20T13:39:22.042Z,46.19
2019-01-20T13:41:50.241Z,45.98
2019-01-20T13:44:18.370Z,46.02
2019-01-20T13:46:46.509Z,46.08
2019-01-20T13:51:48.729Z,45.96
2019-01-20T13:54:16.915Z,46.39
2019-01-20T13:56:45.097Z,46.39
2019-01-20T13:59:13.257Z,46.05
2019-01-20T14:01:41.435Z,46.10
2019-01-20T14:04:09.621Z,46.30
2019-01-20T14:09:24.937Z,45.93
2019-01-20T14:11:53.081Z,46.38
2019-01-20T14:14:21.221Z,46.03
2019-01-20T14:16:49.422Z,45.36
2019-01-20T14:19:21.730Z,45.47
2019-01-20T14:22:06.256Z,45.97
2019-01-20T14:24:34.429Z,46.37
2019-01-20T14:27:02.601Z,46.65
2019-01-20T14:29:30.760Z,46.46
2019-01-20T14:31:58.876Z,46.30
2019-01-20T14:34:27.053Z,46.40
2019-01-20T14:36:55.256Z,46.40
2019-01-20T14:39:42.498Z,46.45
2019-01-20T14:42:10.635Z,46.12
2019-01-20T14:44:38.780Z,46.12
2019-01-20T14:47:06.959Z,46.32
2019-01-20T14:49:35.286Z,46.43
2019-01-20T14:52:03.481Z,46.30
2019-01-20T14:54:31.629Z,46.35
2019-01-20T14:56:59.863Z,46.21
2019-01-20T14:59:28.066Z,46.05
2019-01-20T15:04:43.369Z,46.00
2019-01-20T15:07:11.556Z,46.01
2019-01-20T15:09:39.709Z,45.88
2019-01-20T15:12:07.897Z,45.84
2019-01-20T15:14:36.102Z,45.79
2019-01-20T15:17:04.243Z,45.83
2019-01-20T15:19:32.465Z,45.85
2019-01-20T15:22:00.599Z,45.75
2019-01-20T15:24:31.400Z,45.76
2019-01-20T15:26:58.588Z,45.84
2019-01-20T15:29:26.784Z,45.89
2019-01-20T15:31:54.945Z,45.60
2019-01-20T15:34:23.170Z,45.72
2019-01-20T15:36:51.432Z,45.65
2019-01-20T15:39:19.586Z,45.42
2019-01-20T15:41:47.778Z,45.53
2019-01-20T15:44:15.916Z,45.40
2019-01-20T15:46:44.173Z,45.66
2019-01-20T15:49:12.400Z,45.46
2019-01-20T15:51:40.553Z,45.59
2019-01-20T15:54:08.756Z,45.59
2019-01-20T15:56:36.938Z,45.20
2019-01-20T15:59:05.112Z,45.29
2019-01-20T16:01:33.269Z,45.62
2019-01-20T16:04:01.478Z,45.66
2019-01-20T16:06:29.665Z,45.68
2019-01-20T16:08:57.824Z,45.53
2019-01-20T16:11:26.109Z,45.17
2019-01-20T16:13:54.257Z,45.25
2019-01-20T16:16:22.515Z,45.42
2019-01-20T16:18:50.717Z,45.10
2019-01-20T16:21:38.022Z,45.31
2019-01-20T16:24:25.127Z,45.15
2019-01-20T16:26:53.290Z,45.01
2019-01-20T16:29:21.489Z,45.10
2019-01-20T16:31:49.684Z,45.05
2019-01-20T16:34:19.162Z,45.15
2019-01-20T16:36:47.729Z,45.13
2019-01-20T16:39:15.930Z,44.96
2019-01-20T16:44:23.575Z,44.90
2019-01-20T16:46:51.729Z,44.82
2019-01-20T16:49:38.980Z,44.94
2019-01-20T16:52:26.241Z,44.87
2019-01-20T16:54:54.449Z,44.80
2019-01-20T16:57:22.637Z,44.88
2019-01-20T17:00:09.818Z,44.69
2019-01-20T17:02:37.992Z,44.69
2019-01-20T17:05:07.442Z,44.71
2019-01-20T17:07:35.624Z,44.69
2019-01-20T17:10:03.959Z,44.82
2019-01-20T17:15:39.814Z,44.56
2019-01-20T17:18:08.945Z,44.63
2019-01-20T17:20:37.125Z,44.64
2019-01-20T17:23:05.391Z,44.69
2019-01-20T17:25:33.550Z,44.65
2019-01-20T17:28:07.979Z,44.83
2019-01-20T17:30:36.189Z,44.54
2019-01-20T17:33:04.551Z,44.38
2019-01-20T17:35:32.770Z,44.36
2019-01-20T17:38:00.945Z,44.88
2019-01-20T17:40:29.236Z,44.79
2019-01-20T17:42:57.383Z,44.76
2019-01-20T17:45:48.517Z,44.83
2019-01-20T17:48:15.676Z,44.45
2019-01-20T17:50:44.385Z,44.58
2019-01-20T17:53:12.760Z,44.30
2019-01-20T17:55:40.909Z,44.32
2019-01-20T17:58:09.054Z,44.26
2019-01-20T18:00:56.391Z,44.28
2019-01-20T18:03:24.527Z,44.54
2019-01-20T18:05:52.697Z,44.24
2019-01-20T18:08:39.926Z,44.31
2019-01-20T18:11:08.100Z,44.44
2019-01-20T18:13:55.313Z,44.32
2019-01-20T18:16:23.487Z,44.56
2019-01-20T18:18:51.629Z,44.41
2019-01-20T18:21:19.756Z,44.32
2019-01-20T18:23:47.945Z,44.32
2019-01-20T18:26:35.169Z,44.09
2019-01-20T18:29:03.314Z,44.39
2019-01-20T18:31:31.480Z,44.04
2019-01-20T18:33:59.618Z,44.08
2019-01-20T18:36:46.873Z,44.07
2019-01-20T18:39:15.024Z,44.16
2019-01-20T18:41:43.148Z,44.24
2019-01-20T18:44:11.350Z,44.11
2019-01-20T18:46:39.505Z,44.18
2019-01-20T18:49:26.568Z,44.35
2019-01-20T18:54:21.660Z,44.19
2019-01-20T18:57:08.766Z,44.40
2019-01-20T18:59:56.034Z,44.19
2019-01-20T19:02:24.174Z,44.41
2019-01-20T19:04:52.356Z,44.43
2019-01-20T19:07:20.502Z,44.22
2019-01-20T19:09:48.645Z,44.15
2019-01-20T19:12:35.894Z,44.19
2019-01-20T19:18:18.714Z,43.82
2019-01-20T19:21:00.578Z,43.85
2019-01-20T19:23:28.752Z,43.97
2019-01-20T19:25:56.908Z,43.80
2019-01-20T19:28:25.035Z,43.63
2019-01-20T19:30:53.189Z,43.52
2019-01-20T19:33:21.341Z,43.72
2019-01-20T19:35:49.505Z,43.64
2019-01-20T19:38:17.649Z,43.55
2019-01-20T19:40:45.782Z,43.64
2019-01-20T19:43:33.065Z,43.42
2019-01-20T19:46:01.275Z,43.46
2019-01-20T19:48:29.521Z,43.58
2019-01-20T19:50:57.729Z,43.64
2019-01-20T19:53:25.925Z,43.51
2019-01-20T19:55:54.056Z,43.56
2019-01-20T19:58:22.371Z,43.68
2019-01-20T20:00:50.511Z,43.63
2019-01-20T20:03:18.691Z,43.57
2019-01-20T20:05:46.847Z,43.81
2019-01-20T20:08:15.097Z,43.94
2019-01-20T20:10:43.485Z,43.79
2019-01-20T20:13:11.761Z,43.51
2019-01-20T20:15:39.944Z,43.05
2019-01-20T20:18:08.163Z,43.63
2019-01-20T20:20:36.314Z,43.42
2019-01-20T20:23:04.514Z,43.34
2019-01-20T20:25:32.834Z,43.68
2019-01-20T20:28:01.053Z,43.93
2019-01-20T20:30:30.576Z,43.79
2019-01-20T20:32:58.723Z,43.62
2019-01-20T20:35:26.938Z,43.51
2019-01-20T20:37:55.190Z,43.32
2019-01-20T20:40:23.377Z,43.30
2019-01-20T20:42:51.646Z,43.37
2019-01-20T20:45:20.380Z,43.49
2019-01-20T20:48:07.602Z,43.58
2019-01-20T20:50:35.887Z,43.51
2019-01-20T20:53:04.125Z,43.46
2019-01-20T20:55:32.370Z,43.49
2019-01-20T20:58:00.532Z,43.50
2019-01-20T21:00:47.834Z,43.42
2019-01-20T21:03:19.075Z,43.59
2019-01-20T21:05:47.413Z,43.22
2019-01-20T21:08:15.636Z,43.41
2019-01-20T21:10:43.799Z,43.27
2019-01-20T21:13:12.054Z,43.35
2019-01-20T21:15:40.559Z,43.32
2019-01-20T21:18:08.716Z,43.15
2019-01-20T21:20:36.840Z,43.26
2019-01-20T21:23:11.770Z,43.21
2019-01-20T21:25:35.040Z,43.38
2019-01-20T21:28:22.105Z,43.40
2019-01-20T21:30:50.281Z,43.16
2019-01-20T21:33:18.503Z,43.38
2019-01-20T21:35:47.760Z,43.51
2019-01-20T21:38:35.633Z,43.61
2019-01-20T21:41:03.792Z,43.63
2019-01-20T21:43:31.988Z,43.61
2019-01-20T21:46:19.103Z,43.70
2019-01-20T21:48:47.353Z,43.70
2019-01-20T21:51:15.577Z,43.68
2019-01-20T21:53:43.749Z,43.66
2019-01-20T21:56:11.911Z,43.40
2019-01-20T21:58:40.049Z,43.22
2019-01-20T22:01:08.191Z,43.41
2019-01-20T22:06:10.193Z,43.42
2019-01-20T22:08:38.365Z,43.65
2019-01-20T22:11:06.512Z,43.31
2019-01-20T22:13:34.651Z,43.53
2019-01-20T22:16:21.901Z,43.29
2019-01-20T22:18:50.048Z,43.48
2019-01-20T22:21:18.242Z,43.30
2019-01-20T22:23:46.389Z,43.36
2019-01-20T22:26:14.534Z,43.05
2019-01-20T22:28:42.703Z,43.28
2019-01-20T22:31:10.847Z,43.25
2019-01-20T22:33:38.990Z,43.03
2019-01-20T22:36:07.131Z,43.25
2019-01-20T22:38:35.306Z,43.42
2019-01-20T22:41:03.458Z,43.11
2019-01-20T22:43:31.604Z,42.84
2019-01-20T22:51:56.262Z,43.06
2019-01-20T22:54:43.534Z,42.82
2019-01-20T22:57:11.715Z,42.94
2019-01-20T22:59:39.864Z,42.93
2019-01-20T23:02:08.030Z,42.92
2019-01-20T23:04:36.218Z,42.73
2019-01-20T23:07:04.444Z,42.82
2019-01-20T23:09:32.572Z,42.74
2019-01-20T23:12:00.710Z,42.91
2019-01-20T23:14:28.847Z,42.72
2019-01-20T23:16:56.976Z,42.62
2019-01-20T23:19:25.149Z,42.96
2019-01-20T23:21:53.280Z,42.63
2019-01-20T23:24:21.450Z,42.64
2019-01-20T23:26:49.584Z,42.70
2019-01-20T23:29:17.753Z,42.70
2019-01-20T23:31:45.899Z,42.55
2019-01-20T23:34:14.030Z,42.45
2019-01-20T23:36:42.205Z,42.61
2019-01-20T23:39:10.342Z,42.55
2019-01-20T23:41:38.499Z,42.90
2019-01-20T23:44:06.639Z,42.59
2019-01-20T23:46:34.781Z,42.41
2019-01-20T23:49:02.989Z,42.25
2019-01-20T23:51:31.138Z,42.59
2019-01-20T23:54:18.240Z,42.46
2019-01-20T23:56:46.462Z,42.43
2019-01-20T23:59:14.604Z,42.42
